sensor_id;sensor_type;location;lat;lon;timestamp;P1;durP1;ratioP1;P2;durP2;ratioP2
67675;SDS011;54456;48.436;10.028;2023-07-31T07:41:38;5.15;;;2.00;;
67675;SDS011;54456;48.436;10.028;2023-07-31T07:43:09;5.57;;;2.10;;
67675;SDS011;54456;48.436;10.028;2023-07-31T07:44:39;5.00;;;2.03;;
67675;SDS011;54456;48.436;10.028;2023-07-31T07:46:09;6.82;;;2.30;;
67675;SDS011;54456;48.436;10.028;2023-07-31T07:47:40;5.75;;;2.08;;
67675;SDS011;54456;48.436;10.028;2023-07-31T07:49:10;6.20;;;2.03;;
67675;SDS011;54456;48.436;10.028;2023-07-31T07:50:41;6.20;;;2.35;;
67675;SDS011;54456;48.436;10.028;2023-07-31T07:52:11;7.55;;;2.30;;
67675;SDS011;54456;48.436;10.028;2023-07-31T07:53:42;6.67;;;2.17;;
67675;SDS011;54456;48.436;10.028;2023-07-31T07:55:12;6.82;;;1.90;;
67675;SDS011;54456;48.436;10.028;2023-07-31T07:56:42;7.50;;;2.10;;
67675;SDS011;54456;48.436;10.028;2023-07-31T07:58:12;6.50;;;2.50;;
67675;SDS011;54456;48.436;10.028;2023-07-31T07:59:43;6.10;;;2.15;;
67675;SDS011;54456;48.436;10.028;2023-07-31T08:01:13;5.78;;;2.47;;
67675;SDS011;54456;48.436;10.028;2023-07-31T08:02:44;7.17;;;2.40;;
67675;SDS011;54456;48.436;10.028;2023-07-31T08:04:14;8.47;;;2.30;;
67675;SDS011;54456;48.436;10.028;2023-07-31T08:05:44;5.90;;;2.10;;
67675;SDS011;54456;48.436;10.028;2023-07-31T08:07:15;6.40;;;2.38;;
67675;SDS011;54456;48.436;10.028;2023-07-31T08:08:45;5.93;;;2.30;;
67675;SDS011;54456;48.436;10.028;2023-07-31T08:10:16;5.93;;;2.30;;
67675;SDS011;54456;48.436;10.028;2023-07-31T08:11:46;5.18;;;2.08;;
67675;SDS011;54456;48.436;10.028;2023-07-31T08:13:16;5.77;;;2.33;;
67675;SDS011;54456;48.436;10.028;2023-07-31T08:14:47;6.13;;;2.30;;
67675;SDS011;54456;48.436;10.028;2023-07-31T08:16:17;7.43;;;2.40;;
67675;SDS011;54456;48.436;10.028;2023-07-31T08:17:48;4.45;;;1.90;;
67675;SDS011;54456;48.436;10.028;2023-07-31T08:19:18;6.30;;;2.33;;
67675;SDS011;54456;48.436;10.028;2023-07-31T08:20:48;6.13;;;2.20;;
67675;SDS011;54456;48.436;10.028;2023-07-31T08:22:19;7.95;;;2.38;;
67675;SDS011;54456;48.436;10.028;2023-07-31T08:23:49;6.40;;;2.15;;
67675;SDS011;54456;48.436;10.028;2023-07-31T08:25:19;7.93;;;2.40;;
67675;SDS011;54456;48.436;10.028;2023-07-31T08:26:50;7.45;;;2.28;;
67675;SDS011;54456;48.436;10.028;2023-07-31T08:28:20;6.20;;;2.30;;
67675;SDS011;54456;48.436;10.028;2023-07-31T08:29:51;5.73;;;2.07;;
67675;SDS011;54456;48.436;10.028;2023-07-31T08:31:22;6.18;;;2.17;;
67675;SDS011;54456;48.436;10.028;2023-07-31T08:32:52;6.97;;;2.25;;
67675;SDS011;54456;48.436;10.028;2023-07-31T08:34:23;6.30;;;2.30;;
67675;SDS011;54456;48.436;10.028;2023-07-31T08:35:53;6.20;;;2.40;;
67675;SDS011;54456;48.436;10.028;2023-07-31T08:37:23;6.32;;;2.08;;
67675;SDS011;54456;48.436;10.028;2023-07-31T08:38:53;5.97;;;2.10;;
67675;SDS011;54456;48.436;10.028;2023-07-31T08:40:24;5.50;;;2.27;;
67675;SDS011;54456;48.436;10.028;2023-07-31T08:41:57;7.97;;;2.20;;
67675;SDS011;54456;48.436;10.028;2023-07-31T08:43:29;5.68;;;2.05;;
67675;SDS011;54456;48.436;10.028;2023-07-31T08:45:00;6.03;;;2.10;;
67675;SDS011;54456;48.436;10.028;2023-07-31T08:46:32;5.63;;;2.15;;
67675;SDS011;54456;48.436;10.028;2023-07-31T08:48:03;7.13;;;2.08;;
67675;SDS011;54456;48.436;10.028;2023-07-31T08:49:33;6.43;;;2.15;;
67675;SDS011;54456;48.436;10.028;2023-07-31T08:51:04;7.05;;;2.20;;
67675;SDS011;54456;48.436;10.028;2023-07-31T08:52:36;6.45;;;2.20;;
67675;SDS011;54456;48.436;10.028;2023-07-31T08:54:06;7.20;;;2.20;;
67675;SDS011;54456;48.436;10.028;2023-07-31T08:55:37;7.57;;;2.55;;
67675;SDS011;54456;48.436;10.028;2023-07-31T08:57:08;7.10;;;2.28;;
67675;SDS011;54456;48.436;10.028;2023-07-31T08:58:40;7.53;;;2.47;;
67675;SDS011;54456;48.436;10.028;2023-07-31T09:00:10;7.53;;;2.30;;
67675;SDS011;54456;48.436;10.028;2023-07-31T09:01:42;6.18;;;2.30;;
67675;SDS011;54456;48.436;10.028;2023-07-31T09:03:14;7.30;;;2.50;;
67675;SDS011;54456;48.436;10.028;2023-07-31T09:04:46;6.40;;;2.10;;
67675;SDS011;54456;48.436;10.028;2023-07-31T09:06:17;4.45;;;1.77;;
67675;SDS011;54456;48.436;10.028;2023-07-31T09:07:49;5.05;;;1.80;;
67675;SDS011;54456;48.436;10.028;2023-07-31T09:09:20;7.05;;;2.03;;
67675;SDS011;54456;48.436;10.028;2023-07-31T09:10:50;6.65;;;2.33;;
67675;SDS011;54456;48.436;10.028;2023-07-31T09:12:21;5.97;;;2.10;;
67675;SDS011;54456;48.436;10.028;2023-07-31T09:13:52;7.13;;;2.30;;
67675;SDS011;54456;48.436;10.028;2023-07-31T09:15:23;4.80;;;1.98;;
67675;SDS011;54456;48.436;10.028;2023-07-31T09:16:54;6.10;;;2.22;;
67675;SDS011;54456;48.436;10.028;2023-07-31T09:18:26;5.85;;;2.03;;
67675;SDS011;54456;48.436;10.028;2023-07-31T09:19:56;5.20;;;2.10;;
67675;SDS011;54456;48.436;10.028;2023-07-31T09:21:27;6.85;;;2.20;;
67675;SDS011;54456;48.436;10.028;2023-07-31T09:23:04;6.55;;;2.13;;
67675;SDS011;54456;48.436;10.028;2023-07-31T09:24:39;6.47;;;2.15;;
67675;SDS011;54456;48.436;10.028;2023-07-31T09:26:09;7.10;;;2.13;;
67675;SDS011;54456;48.436;10.028;2023-07-31T09:29:18;6.13;;;2.50;;
67675;SDS011;54456;48.436;10.028;2023-07-31T09:30:50;5.95;;;2.22;;
67675;SDS011;54456;48.436;10.028;2023-07-31T09:32:22;4.95;;;2.30;;
67675;SDS011;54456;48.436;10.028;2023-07-31T09:33:55;5.70;;;2.20;;
67675;SDS011;54456;48.436;10.028;2023-07-31T09:35:30;6.50;;;2.20;;
67675;SDS011;54456;48.436;10.028;2023-07-31T09:37:04;5.80;;;2.20;;
67675;SDS011;54456;48.436;10.028;2023-07-31T09:38:35;5.03;;;2.20;;
67675;SDS011;54456;48.436;10.028;2023-07-31T09:40:05;7.75;;;2.47;;
67675;SDS011;54456;48.436;10.028;2023-07-31T09:46:31;7.10;;;2.10;;
67675;SDS011;54456;48.436;10.028;2023-07-31T09:48:01;6.82;;;2.50;;
67675;SDS011;54456;48.436;10.028;2023-07-31T09:49:32;6.53;;;2.47;;
67675;SDS011;54456;48.436;10.028;2023-07-31T09:51:04;6.60;;;2.45;;
67675;SDS011;54456;48.436;10.028;2023-07-31T09:52:36;7.45;;;2.45;;
67675;SDS011;54456;48.436;10.028;2023-07-31T09:54:12;5.90;;;2.38;;
67675;SDS011;54456;48.436;10.028;2023-07-31T09:55:43;6.20;;;2.13;;
67675;SDS011;54456;48.436;10.028;2023-07-31T09:57:14;6.03;;;2.13;;
67675;SDS011;54456;48.436;10.028;2023-07-31T09:58:46;7.53;;;2.00;;
67675;SDS011;54456;48.436;10.028;2023-07-31T10:00:18;6.35;;;2.33;;
67675;SDS011;54456;48.436;10.028;2023-07-31T10:01:49;6.53;;;2.20;;
67675;SDS011;54456;48.436;10.028;2023-07-31T10:05:31;6.65;;;2.30;;
67675;SDS011;54456;48.436;10.028;2023-07-31T10:07:18;6.03;;;2.30;;
67675;SDS011;54456;48.436;10.028;2023-07-31T10:08:54;5.88;;;2.20;;
67675;SDS011;54456;48.436;10.028;2023-07-31T10:10:24;6.07;;;2.10;;
67675;SDS011;54456;48.436;10.028;2023-07-31T10:11:56;7.80;;;2.65;;
67675;SDS011;54456;48.436;10.028;2023-07-31T10:16:04;6.53;;;2.55;;
67675;SDS011;54456;48.436;10.028;2023-07-31T10:17:40;6.72;;;2.08;;
67675;SDS011;54456;48.436;10.028;2023-07-31T10:19:30;6.22;;;2.17;;
67675;SDS011;54456;48.436;10.028;2023-07-31T10:21:05;6.43;;;2.30;;
67675;SDS011;54456;48.436;10.028;2023-07-31T10:22:36;6.50;;;2.35;;
67675;SDS011;54456;48.436;10.028;2023-07-31T10:24:06;6.80;;;2.35;;
67675;SDS011;54456;48.436;10.028;2023-07-31T10:25:37;6.30;;;2.30;;
67675;SDS011;54456;48.436;10.028;2023-07-31T10:27:09;6.18;;;2.28;;
67675;SDS011;54456;48.436;10.028;2023-07-31T10:28:40;6.72;;;2.25;;
67675;SDS011;54456;48.436;10.028;2023-07-31T10:30:12;6.78;;;2.58;;
67675;SDS011;54456;48.436;10.028;2023-07-31T10:31:45;5.65;;;2.30;;
67675;SDS011;54456;48.436;10.028;2023-07-31T10:33:17;7.05;;;2.60;;
67675;SDS011;54456;48.436;10.028;2023-07-31T10:35:00;6.38;;;2.58;;
67675;SDS011;54456;48.436;10.028;2023-07-31T10:37:35;6.53;;;2.55;;
67675;SDS011;54456;48.436;10.028;2023-07-31T10:39:32;7.22;;;2.67;;
67675;SDS011;54456;48.436;10.028;2023-07-31T10:41:09;7.65;;;2.50;;
67675;SDS011;54456;48.436;10.028;2023-07-31T10:42:48;8.45;;;2.78;;
67675;SDS011;54456;48.436;10.028;2023-07-31T10:44:21;6.40;;;2.30;;
67675;SDS011;54456;48.436;10.028;2023-07-31T10:46:15;6.50;;;2.22;;
67675;SDS011;54456;48.436;10.028;2023-07-31T10:48:23;6.90;;;2.50;;
67675;SDS011;54456;48.436;10.028;2023-07-31T10:50:17;6.28;;;2.22;;
67675;SDS011;54456;48.436;10.028;2023-07-31T10:54:12;5.80;;;2.35;;
67675;SDS011;54456;48.436;10.028;2023-07-31T10:55:45;7.68;;;2.10;;
67675;SDS011;54456;48.436;10.028;2023-07-31T10:57:19;6.18;;;2.28;;
67675;SDS011;54456;48.436;10.028;2023-07-31T10:59:00;7.50;;;2.47;;
67675;SDS011;54456;48.436;10.028;2023-07-31T11:00:30;6.63;;;2.50;;
67675;SDS011;54456;48.436;10.028;2023-07-31T11:02:01;6.57;;;2.30;;
67675;SDS011;54456;48.436;10.028;2023-07-31T11:03:46;7.45;;;2.30;;
67675;SDS011;54456;48.436;10.028;2023-07-31T11:05:19;6.07;;;2.10;;
67675;SDS011;54456;48.436;10.028;2023-07-31T11:07:01;5.30;;;2.33;;
67675;SDS011;54456;48.436;10.028;2023-07-31T11:15:53;8.35;;;2.50;;
67675;SDS011;54456;48.436;10.028;2023-07-31T11:17:24;6.68;;;2.08;;
67675;SDS011;54456;48.436;10.028;2023-07-31T11:18:56;6.78;;;2.40;;
67675;SDS011;54456;48.436;10.028;2023-07-31T11:20:26;5.97;;;2.30;;
67675;SDS011;54456;48.436;10.028;2023-07-31T11:21:57;7.13;;;2.30;;
67675;SDS011;54456;48.436;10.028;2023-07-31T11:23:27;5.68;;;2.30;;
67675;SDS011;54456;48.436;10.028;2023-07-31T11:24:58;7.32;;;2.55;;
67675;SDS011;54456;48.436;10.028;2023-07-31T11:26:28;9.10;;;2.40;;
67675;SDS011;54456;48.436;10.028;2023-07-31T11:32:36;6.32;;;2.10;;
67675;SDS011;54456;48.436;10.028;2023-07-31T11:34:07;7.13;;;1.98;;
67675;SDS011;54456;48.436;10.028;2023-07-31T11:35:44;6.70;;;2.38;;
67675;SDS011;54456;48.436;10.028;2023-07-31T11:37:16;7.43;;;2.50;;
67675;SDS011;54456;48.436;10.028;2023-07-31T11:38:46;5.72;;;2.00;;
67675;SDS011;54456;48.436;10.028;2023-07-31T11:40:17;6.10;;;2.20;;
67675;SDS011;54456;48.436;10.028;2023-07-31T11:41:48;7.75;;;2.30;;
67675;SDS011;54456;48.436;10.028;2023-07-31T11:43:18;7.93;;;2.30;;
67675;SDS011;54456;48.436;10.028;2023-07-31T11:44:49;8.30;;;2.50;;
67675;SDS011;54456;48.436;10.028;2023-07-31T11:46:19;5.00;;;2.20;;
67675;SDS011;54456;48.436;10.028;2023-07-31T11:47:50;6.78;;;2.28;;
67675;SDS011;54456;48.436;10.028;2023-07-31T11:49:20;7.93;;;2.50;;
67675;SDS011;54456;48.436;10.028;2023-07-31T11:50:51;5.85;;;2.15;;
67675;SDS011;54456;48.436;10.028;2023-07-31T11:52:22;4.72;;;2.00;;
67675;SDS011;54456;48.436;10.028;2023-07-31T11:53:54;7.47;;;2.38;;
67675;SDS011;54456;48.436;10.028;2023-07-31T11:56:57;5.03;;;2.20;;
67675;SDS011;54456;48.436;10.028;2023-07-31T12:00:01;6.72;;;2.28;;
67675;SDS011;54456;48.436;10.028;2023-07-31T12:01:33;6.55;;;2.50;;
67675;SDS011;54456;48.436;10.028;2023-07-31T12:03:03;8.48;;;2.55;;
67675;SDS011;54456;48.436;10.028;2023-07-31T12:04:33;6.32;;;2.00;;
67675;SDS011;54456;48.436;10.028;2023-07-31T12:06:04;5.82;;;2.08;;
67675;SDS011;54456;48.436;10.028;2023-07-31T12:07:48;7.32;;;2.33;;
67675;SDS011;54456;48.436;10.028;2023-07-31T12:09:20;7.60;;;2.78;;
67675;SDS011;54456;48.436;10.028;2023-07-31T12:10:53;6.50;;;2.60;;
67675;SDS011;54456;48.436;10.028;2023-07-31T12:12:26;6.25;;;2.25;;
67675;SDS011;54456;48.436;10.028;2023-07-31T12:13:56;5.65;;;2.50;;
67675;SDS011;54456;48.436;10.028;2023-07-31T12:15:30;8.35;;;2.53;;
67675;SDS011;54456;48.436;10.028;2023-07-31T12:17:06;6.93;;;2.75;;
67675;SDS011;54456;48.436;10.028;2023-07-31T12:18:37;6.85;;;2.50;;
67675;SDS011;54456;48.436;10.028;2023-07-31T12:20:08;8.45;;;2.50;;
67675;SDS011;54456;48.436;10.028;2023-07-31T12:21:39;6.70;;;2.63;;
67675;SDS011;54456;48.436;10.028;2023-07-31T12:23:13;6.85;;;2.47;;
67675;SDS011;54456;48.436;10.028;2023-07-31T12:24:47;6.78;;;2.50;;
67675;SDS011;54456;48.436;10.028;2023-07-31T12:26:18;6.47;;;2.60;;
67675;SDS011;54456;48.436;10.028;2023-07-31T12:27:50;6.50;;;2.67;;
67675;SDS011;54456;48.436;10.028;2023-07-31T12:29:20;6.90;;;2.33;;
67675;SDS011;54456;48.436;10.028;2023-07-31T12:30:51;6.90;;;2.60;;
67675;SDS011;54456;48.436;10.028;2023-07-31T12:32:22;6.85;;;2.17;;
67675;SDS011;54456;48.436;10.028;2023-07-31T12:33:54;6.25;;;2.38;;
67675;SDS011;54456;48.436;10.028;2023-07-31T12:35:30;6.70;;;2.53;;
67675;SDS011;54456;48.436;10.028;2023-07-31T12:37:05;6.60;;;2.53;;
67675;SDS011;54456;48.436;10.028;2023-07-31T12:38:36;7.05;;;2.83;;
67675;SDS011;54456;48.436;10.028;2023-07-31T12:40:06;7.03;;;2.60;;
67675;SDS011;54456;48.436;10.028;2023-07-31T12:41:37;8.23;;;2.70;;
67675;SDS011;54456;48.436;10.028;2023-07-31T12:43:07;7.65;;;2.42;;
67675;SDS011;54456;48.436;10.028;2023-07-31T12:44:38;7.22;;;2.70;;
67675;SDS011;54456;48.436;10.028;2023-07-31T12:46:08;6.70;;;2.93;;
67675;SDS011;54456;48.436;10.028;2023-07-31T12:47:39;6.57;;;2.47;;
67675;SDS011;54456;48.436;10.028;2023-07-31T12:49:10;7.97;;;2.50;;
67675;SDS011;54456;48.436;10.028;2023-07-31T12:50:40;8.00;;;2.20;;
67675;SDS011;54456;48.436;10.028;2023-07-31T12:52:10;8.43;;;2.60;;
67675;SDS011;54456;48.436;10.028;2023-07-31T12:53:41;8.03;;;2.90;;
67675;SDS011;54456;48.436;10.028;2023-07-31T12:55:11;7.10;;;2.90;;
67675;SDS011;54456;48.436;10.028;2023-07-31T12:56:41;6.90;;;2.70;;
67675;SDS011;54456;48.436;10.028;2023-07-31T12:58:12;6.65;;;2.90;;
67675;SDS011;54456;48.436;10.028;2023-07-31T12:59:42;6.82;;;2.63;;
67675;SDS011;54456;48.436;10.028;2023-07-31T13:01:12;8.03;;;3.07;;
67675;SDS011;54456;48.436;10.028;2023-07-31T13:02:43;6.47;;;2.97;;
67675;SDS011;54456;48.436;10.028;2023-07-31T13:04:13;7.47;;;2.80;;
67675;SDS011;54456;48.436;10.028;2023-07-31T13:05:44;7.65;;;2.70;;
67675;SDS011;54456;48.436;10.028;2023-07-31T13:07:15;8.13;;;3.30;;
67675;SDS011;54456;48.436;10.028;2023-07-31T13:08:46;6.85;;;2.55;;
67675;SDS011;54456;48.436;10.028;2023-07-31T13:10:25;7.00;;;3.08;;
67675;SDS011;54456;48.436;10.028;2023-07-31T13:12:01;7.43;;;2.80;;
67675;SDS011;54456;48.436;10.028;2023-07-31T13:13:31;5.97;;;2.47;;
67675;SDS011;54456;48.436;10.028;2023-07-31T13:15:02;8.32;;;2.75;;
67675;SDS011;54456;48.436;10.028;2023-07-31T13:16:33;7.82;;;2.90;;
67675;SDS011;54456;48.436;10.028;2023-07-31T13:18:04;6.63;;;2.63;;
67675;SDS011;54456;48.436;10.028;2023-07-31T13:19:34;8.70;;;3.00;;
67675;SDS011;54456;48.436;10.028;2023-07-31T13:21:04;7.80;;;3.13;;
67675;SDS011;54456;48.436;10.028;2023-07-31T13:22:35;7.67;;;3.00;;
67675;SDS011;54456;48.436;10.028;2023-07-31T13:24:05;8.23;;;2.77;;
67675;SDS011;54456;48.436;10.028;2023-07-31T13:25:35;7.55;;;2.92;;
67675;SDS011;54456;48.436;10.028;2023-07-31T13:27:05;8.53;;;2.90;;
67675;SDS011;54456;48.436;10.028;2023-07-31T13:28:36;7.37;;;2.70;;
67675;SDS011;54456;48.436;10.028;2023-07-31T13:30:06;8.50;;;3.20;;
67675;SDS011;54456;48.436;10.028;2023-07-31T13:31:37;6.80;;;2.92;;
67675;SDS011;54456;48.436;10.028;2023-07-31T13:33:07;10.80;;;2.60;;
67675;SDS011;54456;48.436;10.028;2023-07-31T13:34:38;6.40;;;3.00;;
67675;SDS011;54456;48.436;10.028;2023-07-31T13:36:08;7.47;;;2.88;;
67675;SDS011;54456;48.436;10.028;2023-07-31T13:37:39;7.80;;;2.60;;
67675;SDS011;54456;48.436;10.028;2023-07-31T13:39:10;10.18;;;2.85;;
67675;SDS011;54456;48.436;10.028;2023-07-31T13:40:40;8.30;;;2.95;;
67675;SDS011;54456;48.436;10.028;2023-07-31T13:42:10;5.93;;;2.60;;
67675;SDS011;54456;48.436;10.028;2023-07-31T13:43:42;7.47;;;2.83;;
67675;SDS011;54456;48.436;10.028;2023-07-31T13:45:12;7.93;;;3.10;;
67675;SDS011;54456;48.436;10.028;2023-07-31T13:46:43;6.72;;;2.85;;
67675;SDS011;54456;48.436;10.028;2023-07-31T13:48:13;8.60;;;2.78;;
67675;SDS011;54456;48.436;10.028;2023-07-31T13:49:43;7.90;;;2.97;;
67675;SDS011;54456;48.436;10.028;2023-07-31T13:51:14;7.90;;;2.72;;
67675;SDS011;54456;48.436;10.028;2023-07-31T13:52:44;6.70;;;3.00;;
67675;SDS011;54456;48.436;10.028;2023-07-31T13:54:14;7.57;;;2.90;;
67675;SDS011;54456;48.436;10.028;2023-07-31T13:55:45;7.47;;;2.78;;
67675;SDS011;54456;48.436;10.028;2023-07-31T13:57:16;8.50;;;2.80;;
67675;SDS011;54456;48.436;10.028;2023-07-31T13:58:47;6.28;;;2.63;;
67675;SDS011;54456;48.436;10.028;2023-07-31T14:00:17;7.17;;;2.80;;
67675;SDS011;54456;48.436;10.028;2023-07-31T14:01:47;7.65;;;2.90;;
67675;SDS011;54456;48.436;10.028;2023-07-31T14:03:18;7.05;;;2.88;;
67675;SDS011;54456;48.436;10.028;2023-07-31T14:04:48;6.53;;;3.00;;
67675;SDS011;54456;48.436;10.028;2023-07-31T14:06:19;7.40;;;2.80;;
67675;SDS011;54456;48.436;10.028;2023-07-31T14:07:49;6.88;;;2.70;;
67675;SDS011;54456;48.436;10.028;2023-07-31T14:09:20;7.73;;;2.70;;
67675;SDS011;54456;48.436;10.028;2023-07-31T14:10:50;7.28;;;3.00;;
67675;SDS011;54456;48.436;10.028;2023-07-31T14:12:20;7.00;;;2.30;;
67675;SDS011;54456;48.436;10.028;2023-07-31T14:13:51;7.20;;;2.90;;
67675;SDS011;54456;48.436;10.028;2023-07-31T14:15:22;7.00;;;3.00;;
67675;SDS011;54456;48.436;10.028;2023-07-31T14:16:52;9.88;;;2.95;;
67675;SDS011;54456;48.436;10.028;2023-07-31T14:18:23;7.97;;;2.90;;
67675;SDS011;54456;48.436;10.028;2023-07-31T14:19:53;12.10;;;3.00;;
67675;SDS011;54456;48.436;10.028;2023-07-31T14:21:24;6.95;;;2.78;;
67675;SDS011;54456;48.436;10.028;2023-07-31T14:22:55;6.82;;;2.75;;
67675;SDS011;54456;48.436;10.028;2023-07-31T14:24:25;8.15;;;3.00;;
67675;SDS011;54456;48.436;10.028;2023-07-31T14:25:56;6.75;;;2.83;;
67675;SDS011;54456;48.436;10.028;2023-07-31T14:27:26;7.73;;;2.90;;
67675;SDS011;54456;48.436;10.028;2023-07-31T14:28:56;6.87;;;2.70;;
67675;SDS011;54456;48.436;10.028;2023-07-31T14:30:30;8.80;;;2.90;;
67675;SDS011;54456;48.436;10.028;2023-07-31T14:32:00;7.18;;;2.80;;
67675;SDS011;54456;48.436;10.028;2023-07-31T14:33:31;7.43;;;2.88;;
67675;SDS011;54456;48.436;10.028;2023-07-31T14:35:01;6.50;;;2.43;;
67675;SDS011;54456;48.436;10.028;2023-07-31T14:36:31;5.88;;;2.67;;
67675;SDS011;54456;48.436;10.028;2023-07-31T14:38:02;7.35;;;2.83;;
67675;SDS011;54456;48.436;10.028;2023-07-31T14:39:32;6.82;;;2.53;;
67675;SDS011;54456;48.436;10.028;2023-07-31T14:41:02;9.13;;;3.23;;
67675;SDS011;54456;48.436;10.028;2023-07-31T14:42:33;8.68;;;3.03;;
67675;SDS011;54456;48.436;10.028;2023-07-31T14:44:04;7.22;;;2.40;;
67675;SDS011;54456;48.436;10.028;2023-07-31T14:45:34;6.72;;;2.85;;
67675;SDS011;54456;48.436;10.028;2023-07-31T14:47:05;6.93;;;2.72;;
67675;SDS011;54456;48.436;10.028;2023-07-31T14:48:35;7.15;;;3.20;;
67675;SDS011;54456;48.436;10.028;2023-07-31T14:50:06;6.50;;;2.65;;
67675;SDS011;54456;48.436;10.028;2023-07-31T14:51:36;8.45;;;3.00;;
67675;SDS011;54456;48.436;10.028;2023-07-31T14:53:07;7.82;;;2.80;;
67675;SDS011;54456;48.436;10.028;2023-07-31T14:54:38;7.65;;;3.17;;
67675;SDS011;54456;48.436;10.028;2023-07-31T14:56:08;8.00;;;2.83;;
67675;SDS011;54456;48.436;10.028;2023-07-31T14:57:38;7.75;;;2.95;;
67675;SDS011;54456;48.436;10.028;2023-07-31T14:59:09;8.90;;;2.85;;
67675;SDS011;54456;48.436;10.028;2023-07-31T15:00:40;7.60;;;3.13;;
67675;SDS011;54456;48.436;10.028;2023-07-31T15:02:10;6.32;;;2.80;;
67675;SDS011;54456;48.436;10.028;2023-07-31T15:03:40;5.72;;;2.50;;
67675;SDS011;54456;48.436;10.028;2023-07-31T15:05:11;6.07;;;2.77;;
67675;SDS011;54456;48.436;10.028;2023-07-31T15:06:41;7.90;;;2.90;;
67675;SDS011;54456;48.436;10.028;2023-07-31T15:08:11;7.75;;;2.70;;
67675;SDS011;54456;48.436;10.028;2023-07-31T15:09:42;7.90;;;2.90;;
67675;SDS011;54456;48.436;10.028;2023-07-31T15:11:12;7.60;;;2.92;;
67675;SDS011;54456;48.436;10.028;2023-07-31T15:12:44;8.48;;;2.83;;
67675;SDS011;54456;48.436;10.028;2023-07-31T15:14:14;7.33;;;3.00;;
67675;SDS011;54456;48.436;10.028;2023-07-31T15:15:45;8.27;;;2.85;;
67675;SDS011;54456;48.436;10.028;2023-07-31T15:17:15;6.82;;;2.50;;
67675;SDS011;54456;48.436;10.028;2023-07-31T15:18:45;8.32;;;3.10;;
67675;SDS011;54456;48.436;10.028;2023-07-31T15:20:16;7.83;;;2.70;;
67675;SDS011;54456;48.436;10.028;2023-07-31T15:21:46;7.32;;;3.13;;
67675;SDS011;54456;48.436;10.028;2023-07-31T15:23:17;6.72;;;2.60;;
67675;SDS011;54456;48.436;10.028;2023-07-31T15:24:48;6.95;;;2.75;;
67675;SDS011;54456;48.436;10.028;2023-07-31T15:26:19;7.57;;;2.72;;
67675;SDS011;54456;48.436;10.028;2023-07-31T15:27:49;8.40;;;3.00;;
67675;SDS011;54456;48.436;10.028;2023-07-31T15:29:19;8.65;;;3.20;;
67675;SDS011;54456;48.436;10.028;2023-07-31T15:30:50;6.60;;;2.80;;
67675;SDS011;54456;48.436;10.028;2023-07-31T15:32:21;7.30;;;2.63;;
67675;SDS011;54456;48.436;10.028;2023-07-31T15:33:51;6.32;;;2.70;;
67675;SDS011;54456;48.436;10.028;2023-07-31T15:35:22;9.23;;;2.70;;
67675;SDS011;54456;48.436;10.028;2023-07-31T15:36:52;6.85;;;2.97;;
67675;SDS011;54456;48.436;10.028;2023-07-31T15:38:22;8.73;;;2.90;;
67675;SDS011;54456;48.436;10.028;2023-07-31T15:39:53;6.75;;;2.80;;
67675;SDS011;54456;48.436;10.028;2023-07-31T15:41:23;7.75;;;3.00;;
67675;SDS011;54456;48.436;10.028;2023-07-31T15:42:55;7.82;;;2.65;;
67675;SDS011;54456;48.436;10.028;2023-07-31T15:44:25;7.15;;;3.10;;
67675;SDS011;54456;48.436;10.028;2023-07-31T15:45:55;6.07;;;2.60;;
67675;SDS011;54456;48.436;10.028;2023-07-31T15:47:26;6.55;;;2.90;;
67675;SDS011;54456;48.436;10.028;2023-07-31T15:48:56;8.43;;;3.45;;
67675;SDS011;54456;48.436;10.028;2023-07-31T15:50:26;7.47;;;2.93;;
67675;SDS011;54456;48.436;10.028;2023-07-31T15:51:57;7.07;;;2.90;;
67675;SDS011;54456;48.436;10.028;2023-07-31T15:53:27;7.22;;;2.80;;
67675;SDS011;54456;48.436;10.028;2023-07-31T15:54:57;8.02;;;2.90;;
67675;SDS011;54456;48.436;10.028;2023-07-31T15:56:28;6.10;;;2.63;;
67675;SDS011;54456;48.436;10.028;2023-07-31T15:57:58;9.27;;;3.17;;
67675;SDS011;54456;48.436;10.028;2023-07-31T15:59:29;7.60;;;3.00;;
67675;SDS011;54456;48.436;10.028;2023-07-31T16:00:59;7.97;;;3.33;;
67675;SDS011;54456;48.436;10.028;2023-07-31T16:02:33;8.98;;;3.00;;
67675;SDS011;54456;48.436;10.028;2023-07-31T16:04:07;7.43;;;2.88;;
67675;SDS011;54456;48.436;10.028;2023-07-31T16:05:38;8.07;;;3.17;;
67675;SDS011;54456;48.436;10.028;2023-07-31T16:07:08;9.57;;;3.20;;
67675;SDS011;54456;48.436;10.028;2023-07-31T16:08:38;7.30;;;3.20;;
67675;SDS011;54456;48.436;10.028;2023-07-31T16:10:11;7.53;;;2.75;;
67675;SDS011;54456;48.436;10.028;2023-07-31T16:11:41;7.38;;;3.10;;
67675;SDS011;54456;48.436;10.028;2023-07-31T16:13:12;8.98;;;2.95;;
67675;SDS011;54456;48.436;10.028;2023-07-31T16:14:42;8.20;;;3.20;;
67675;SDS011;54456;48.436;10.028;2023-07-31T16:16:13;7.95;;;3.95;;
67675;SDS011;54456;48.436;10.028;2023-07-31T16:17:43;7.40;;;2.80;;
67675;SDS011;54456;48.436;10.028;2023-07-31T16:19:13;7.20;;;3.20;;
67675;SDS011;54456;48.436;10.028;2023-07-31T16:20:44;8.05;;;3.17;;
67675;SDS011;54456;48.436;10.028;2023-07-31T16:22:14;8.30;;;2.90;;
67675;SDS011;54456;48.436;10.028;2023-07-31T16:23:45;7.65;;;3.33;;
67675;SDS011;54456;48.436;10.028;2023-07-31T16:25:16;9.68;;;3.38;;
67675;SDS011;54456;48.436;10.028;2023-07-31T16:26:46;8.38;;;3.33;;
67675;SDS011;54456;48.436;10.028;2023-07-31T16:28:17;8.40;;;3.22;;
67675;SDS011;54456;48.436;10.028;2023-07-31T16:29:47;9.37;;;3.57;;
67675;SDS011;54456;48.436;10.028;2023-07-31T16:31:17;6.60;;;3.10;;
67675;SDS011;54456;48.436;10.028;2023-07-31T16:32:48;9.35;;;3.50;;
67675;SDS011;54456;48.436;10.028;2023-07-31T16:34:19;8.18;;;3.72;;
67675;SDS011;54456;48.436;10.028;2023-07-31T16:35:49;10.07;;;3.30;;
67675;SDS011;54456;48.436;10.028;2023-07-31T16:37:20;7.05;;;3.25;;
67675;SDS011;54456;48.436;10.028;2023-07-31T16:38:51;8.30;;;3.33;;
67675;SDS011;54456;48.436;10.028;2023-07-31T16:40:22;8.15;;;3.05;;
67675;SDS011;54456;48.436;10.028;2023-07-31T16:41:52;9.18;;;2.95;;
67675;SDS011;54456;48.436;10.028;2023-07-31T16:43:23;8.63;;;3.33;;
67675;SDS011;54456;48.436;10.028;2023-07-31T16:44:53;9.80;;;3.60;;
67675;SDS011;54456;48.436;10.028;2023-07-31T16:46:23;8.37;;;3.13;;
67675;SDS011;54456;48.436;10.028;2023-07-31T16:47:54;8.55;;;3.40;;
67675;SDS011;54456;48.436;10.028;2023-07-31T16:49:24;9.00;;;2.73;;
67675;SDS011;54456;48.436;10.028;2023-07-31T16:50:54;7.25;;;2.90;;
67675;SDS011;54456;48.436;10.028;2023-07-31T16:52:25;6.77;;;3.10;;
67675;SDS011;54456;48.436;10.028;2023-07-31T16:53:55;7.35;;;3.42;;
67675;SDS011;54456;48.436;10.028;2023-07-31T16:55:26;7.07;;;3.20;;
67675;SDS011;54456;48.436;10.028;2023-07-31T16:56:56;8.85;;;3.30;;
67675;SDS011;54456;48.436;10.028;2023-07-31T16:58:26;8.13;;;3.28;;
67675;SDS011;54456;48.436;10.028;2023-07-31T16:59:57;9.07;;;3.25;;
67675;SDS011;54456;48.436;10.028;2023-07-31T17:01:29;8.88;;;3.38;;
67675;SDS011;54456;48.436;10.028;2023-07-31T17:03:02;8.02;;;2.67;;
67675;SDS011;54456;48.436;10.028;2023-07-31T17:04:33;7.25;;;3.08;;
67675;SDS011;54456;48.436;10.028;2023-07-31T17:06:04;8.57;;;3.30;;
67675;SDS011;54456;48.436;10.028;2023-07-31T17:07:34;8.03;;;3.23;;
67675;SDS011;54456;48.436;10.028;2023-07-31T17:09:04;9.07;;;3.67;;
67675;SDS011;54456;48.436;10.028;2023-07-31T17:10:35;9.43;;;3.65;;
67675;SDS011;54456;48.436;10.028;2023-07-31T17:12:05;8.10;;;3.13;;
67675;SDS011;54456;48.436;10.028;2023-07-31T17:13:36;8.15;;;3.25;;